Latest Coastal Weather Observations for Yeppoon

IDQ60701

Issued at 5:31 am EST Monday 6 July 2015 (issued every 10 minutes, with the page automatically refreshed every 10 minutes)

About coastal observations | Map of coastal stations | Coastal observations for QLD | Marine services | Other Formats
Station Details ID: 033294 Name: YEPPOON THE ESPLANADE Lat: -23.14 Lon: 150.75 Height: 5.5 m
Data from the previous 72 hours. | See also: Recent months at Yeppoon
Date/Time
EST
Temp

°C
Wind Pressure Rain
since 9am
mm
Weather Cloud Vis
km
Sea
Height
m
Swell
Dir
 
Speed
knots
Gust
knots
hPa Trend Height
m
Period
s
Dir
06/05:30am 13.2 WSW 5 6 1019.1 - 0.0 - - - - - - -
06/05:00am 13.3 WSW 5 6 1019.1 - 0.0 - - - - - - -
06/04:30am 13.7 WSW 5 6 1019.1 - 0.0 - - - - - - -
06/04:00am 14.1 WSW 5 6 1019.2 - 0.0 - - - - - - -
06/03:30am 14.2 SW 5 6 1019.2 - 0.0 - - - - - - -
06/03:00am 14.2 SW 4 5 1019.3 - 0.0 - - - - - - -
06/02:30am 14.4 SW 4 5 1019.2 - 0.0 - - - - - - -
06/02:00am 14.6 WSW 4 5 1019.5 - 0.0 - - - - - - -
06/01:30am 14.4 WSW 5 6 1019.9 - 0.0 - - - - - - -
06/01:00am 14.4 WSW 5 5 1020.2 - 0.0 - - - - - - -
06/12:30am 14.7 SW 3 4 1020.2 - 0.0 - - - - - - -
06/12:00am 14.5 SW 4 4 1020.3 - 0.0 - - - - - - -
 
Date/Time
EST
Temp

°C
Wind Pressure Rain
since 9am
mm
Weather Cloud Vis
km
Sea
Height
m
Swell
Dir
 
Speed
knots
Gust
knots
hPa Trend Height
m
Period
s
Dir
05/11:30pm 14.5 SSW 3 4 1020.4 - 0.0 - - - - - - -
05/11:00pm 14.5 SSW 3 4 1020.5 - 0.0 - - - - - - -
05/10:30pm 14.6 SSW 1 4 1020.7 - 0.0 - - - - - - -
05/10:00pm 14.8 SSW 3 4 1020.7 - 0.0 - - - - - - -
05/09:30pm 15.3 SSW 3 4 1020.8 - 0.0 - - - - - - -
05/09:00pm 15.9 SSW 3 4 1020.9 - 0.0 - - - - - - -
05/08:30pm 16.3 SSW 4 5 1020.8 - 0.0 - - - - - - -
05/08:00pm 17.6 SSE 3 4 1020.6 - 0.0 - - - - - - -
05/07:30pm 19.3 E 5 8 1020.4 - 0.0 - - - - - - -
05/07:00pm 19.3 E 5 7 1020.0 - 0.0 - - - - - - -
05/06:30pm 19.4 E 7 9 1019.8 - 0.0 - - - - - - -
05/06:00pm 19.5 E 8 9 1019.4 - 0.0 - - - - - - -
05/05:30pm 19.7 E 7 9 1019.2 - 0.0 - - - - - - -
05/05:00pm 20.0 E 10 12 1019.1 - 0.0 - - - - - - -
05/04:30pm 20.0 E 11 13 1019.1 - 0.0 - - - - - - -
05/04:00pm 20.4 E 10 12 1019.2 - 0.0 - - - - - - -
05/03:30pm 20.7 E 10 13 1019.3 - 0.0 - - - - - - -
05/03:00pm 20.8 E 11 14 1019.6 - 0.0 - - - - - - -
05/02:30pm 20.8 E 12 15 1019.8 - 0.0 - - - - - - -
05/02:00pm 21.2 E 12 15 1019.9 - 0.0 - - - - - - -
05/01:30pm 21.5 E 10 12 1020.0 - 0.0 - - - - - - -
05/01:00pm 21.1 E 10 13 1020.3 - 0.0 - - - - - - -
05/12:30pm 21.0 ESE 9 13 1020.7 - 0.0 - - - - - - -
05/12:00pm 20.7 ESE 9 13 1021.2 - 0.0 - - - - - - -
05/11:30am 20.9 ESE 9 11 1021.4 - 0.0 - - - - - - -
05/11:00am 21.1 ESE 8 13 1021.7 - 0.0 - - - - - - -
05/10:30am 20.2 SE 8 11 1021.8 - 0.0 - - - - - - -
05/10:00am 19.7 SE 10 13 1022.2 - 0.0 - - - - - - -
05/09:30am 19.3 SE 7 11 1022.1 - 0.0 - - - - - - -
05/09:00am 18.6 SSE 7 10 1021.9 - 0.0 - - - - - - -
05/08:30am 17.9 SSE 7 9 1021.9 - 0.0 - - - - - - -
05/08:00am 17.2 S 7 9 1021.6 - 0.0 - - - - - - -
05/07:30am 16.5 S 7 11 1021.2 - 0.0 - - - - - - -
05/07:00am 15.8 SW 3 6 1020.9 - 0.0 - - - - - - -
05/06:30am 15.7 WSW 4 6 1020.5 - 0.0 - - - - - - -
05/06:00am 15.5 W 6 7 1020.4 - 0.0 - - - - - - -
05/05:30am 15.9 W 6 7 1020.0 - 0.0 - - - - - - -
05/05:00am 16.1 SW 4 6 1019.8 - 0.0 - - - - - - -
05/04:30am 15.8 SSW 7 9 1019.6 - 0.0 - - - - - - -
05/04:00am 15.9 SSW 6 7 1019.7 - 0.0 - - - - - - -
05/03:30am 15.9 SW 4 5 1019.7 - 0.0 - - - - - - -
05/03:00am 15.9 SW 5 6 1019.6 - 0.0 - - - - - - -
05/02:30am 15.9 WSW 5 5 1019.9 - 0.0 - - - - - - -
05/02:00am 16.2 WSW 4 5 1020.2 - 0.0 - - - - - - -
05/01:30am 16.6 W 5 6 1020.4 - 0.0 - - - - - - -
05/01:00am 16.9 SW 5 6 1020.6 - 0.0 - - - - - - -
05/12:30am 17.3 SSW 4 5 1020.7 - 0.0 - - - - - - -
05/12:00am 17.8 SW 5 6 1021.0 - 0.0 - - - - - - -
 
Date/Time
EST
Temp

°C
Wind Pressure Rain
since 9am
mm
Weather Cloud Vis
km
Sea
Height
m
Swell
Dir
 
Speed
knots
Gust
knots
hPa Trend Height
m
Period
s
Dir
04/11:30pm 18.1 SSW 1 4 1021.2 - 0.0 - - - - - - -
04/11:00pm 19.0 ENE 5 7 1021.3 - 0.0 - - - - - - -
04/10:30pm 19.2 ENE 6 8 1021.4 - 0.0 - - - - - - -
04/10:00pm 19.1 NE 7 9 1021.6 - 0.0 - - - - - - -
04/09:30pm 19.2 ENE 8 10 1021.6 - 0.0 - - - - - - -
04/09:00pm 19.4 E 8 13 1021.7 - 0.0 - - - - - - -
04/08:30pm 19.6 ESE 8 12 1021.4 - 0.0 - - - - - - -
04/08:00pm 19.5 ESE 7 10 1021.4 - 0.0 - - - - - - -
04/07:30pm 19.4 ESE 8 11 1021.3 - 0.0 - - - - - - -
04/07:00pm 19.5 E 9 12 1020.9 - 0.0 - - - - - - -
04/06:30pm 19.4 ESE 7 11 1020.4 - 0.0 - - - - - - -
04/06:00pm 19.2 ESE 8 11 1020.1 - 0.0 - - - - - - -
04/05:30pm 19.3 E 9 14 1019.8 - 0.0 - - - - - - -
04/05:00pm 19.5 ESE 8 12 1019.6 - 0.0 - - - - - - -
04/04:30pm 19.9 E 9 13 1019.6 - 0.0 - - - - - - -
04/04:00pm 20.1 ESE 8 12 1019.4 - 0.0 - - - - - - -
04/03:30pm 20.4 ESE 9 13 1019.3 - 0.0 - - - - - - -
04/03:00pm 20.6 ESE 10 13 1019.4 - 0.0 - - - - - - -
04/02:30pm 20.5 ESE 9 13 1019.4 - 0.0 - - - - - - -
04/02:00pm 20.3 ESE 10 13 1019.3 - 0.0 - - - - - - -
04/01:30pm 20.3 ESE 8 12 1019.5 - 0.0 - - - - - - -
04/01:00pm 20.0 ESE 10 13 1019.9 - 0.0 - - - - - - -
04/12:30pm 20.2 ESE 9 14 1020.2 - 0.0 - - - - - - -
04/12:00pm 20.2 ESE 10 15 1020.5 - 0.0 - - - - - - -
04/11:30am 19.8 ESE 10 15 1020.9 - 0.0 - - - - - - -
04/11:00am 19.7 ESE 9 12 1021.4 - 0.0 - - - - - - -
04/10:30am 19.1 ESE 9 12 1021.5 - 0.0 - - - - - - -
04/10:00am 18.4 SE 10 13 1021.8 - 0.0 - - - - - - -
04/09:30am 17.5 S 7 10 1021.9 - 0.0 - - - - - - -
04/09:00am 16.3 SSE 5 7 1022.1 - 0.0 - - - - - - -
04/08:30am 15.3 S 8 11 1022.1 - 0.0 - - - - - - -
04/08:00am 14.5 SSW 6 9 1022.2 - 0.0 - - - - - - -
04/07:30am 13.8 SW 5 7 1022.0 - 0.0 - - - - - - -
04/07:00am 13.2 SW 5 7 1021.6 - 0.0 - - - - - - -
04/06:30am 12.3 SSW 6 8 1021.4 - 0.0 - - - - - - -
04/06:00am 12.5 SW 5 8 1021.0 - 0.0 - - - - - - -
04/05:30am 12.2 SSW 5 7 1020.8 - 0.0 - - - - - - -
04/05:00am 12.4 SSW 5 8 1020.5 - 0.0 - - - - - - -
04/04:30am 12.7 SSW 7 11 1020.3 - 0.0 - - - - - - -
04/04:00am 12.7 SSW 6 9 1020.4 - 0.0 - - - - - - -
04/03:30am 12.4 SSW 6 7 1020.4 - 0.0 - - - - - - -
04/03:00am 12.5 SSW 6 8 1020.4 - 0.0 - - - - - - -
04/02:30am 13.2 SSW 5 7 1020.5 - 0.0 - - - - - - -
04/02:00am 12.7 SSW 5 7 1020.5 - 0.0 - - - - - - -
04/01:30am 13.2 SSW 5 7 1021.2 - 0.0 - - - - - - -
04/01:00am 14.0 SSW 6 9 1021.3 - 0.0 - - - - - - -
04/12:30am 14.5 S 6 9 1021.4 - 0.0 - - - - - - -
04/12:00am 14.9 S 6 7 1021.5 - 0.0 - - - - - - -
 
Date/Time
EST
Temp

°C
Wind Pressure Rain
since 9am
mm
Weather Cloud Vis
km
Sea
Height
m
Swell
Dir
 
Speed
knots
Gust
knots
hPa Trend Height
m
Period
s
Dir
03/11:30pm 14.8 S 7 9 1021.7 - 0.0 - - - - - - -
03/11:00pm 13.5 SW 5 7 1021.9 - 0.0 - - - - - - -
03/10:30pm 13.0 SW 5 6 1022.0 - 0.0 - - - - - - -
03/10:00pm 13.4 SW 4 5 1022.0 - 0.0 - - - - - - -
03/09:30pm 13.4 SW 5 6 1022.0 - 0.0 - - - - - - -
03/09:00pm 13.0 WSW 4 5 1022.0 - 0.0 - - - - - - -
03/08:30pm 13.2 W 5 6 1022.0 - 0.0 - - - - - - -
03/08:00pm 13.6 W 5 7 1021.8 - 0.0 - - - - - - -
03/07:30pm 14.1 W 6 8 1021.6 - 0.0 - - - - - - -
03/07:00pm 14.5 WSW 4 6 1021.5 - 0.0 - - - - - - -
03/06:30pm 15.6 S 4 5 1021.0 - 0.0 - - - - - - -
03/06:00pm 17.3 ESE 6 9 1020.9 - 0.0 - - - - - - -
03/05:30pm 17.1 SE 5 10 1020.7 - 0.0 - - - - - - -
03/05:00pm 17.4 ESE 8 11 1020.6 - 0.0 - - - - - - -
03/04:30pm 17.6 ESE 8 11 1020.3 - 0.0 - - - - - - -
03/04:00pm 17.5 SE 8 13 1019.9 - 0.0 - - - - - - -
03/03:30pm 17.5 E 11 15 1019.7 - 0.0 - - - - - - -
03/03:00pm 17.7 ESE 10 13 1019.6 - 0.0 - - - - - - -
03/02:30pm 17.5 ESE 10 13 1019.6 - 0.0 - - - - - - -
03/02:00pm 17.6 ESE 10 14 1019.6 - 0.0 - - - - - - -
03/01:30pm 17.3 ESE 10 15 1019.8 - 0.0 - - - - - - -
03/01:00pm 17.2 SE 11 15 1019.9 - 0.0 - - - - - - -
03/12:30pm 17.5 ESE 10 13 1020.5 - 0.0 - - - - - - -
03/12:00pm 17.7 ESE 9 13 1020.9 - 0.0 - - - - - - -
03/11:30am 17.1 SSE 7 12 1021.3 - 0.0 - - - - - - -
03/11:00am 17.1 SSW 4 7 1021.8 - 0.0 - - - - - - -
03/10:30am 16.2 SSE 4 7 1022.0 - 0.0 - - - - - - -
03/10:00am 15.3 SW 2 7 1022.2 - 0.0 - - - - - - -
03/09:30am 13.7 WSW 6 9 1022.0 - 0.0 - - - - - - -
03/09:00am 12.4 W 6 8 1022.1 - 0.2 - - - - - - -
03/08:30am 11.7 WSW 7 9 1021.8 - 0.2 - - - - - - -
03/08:00am 10.8 WSW 7 10 1021.4 - 0.2 - - - - - - -
03/07:30am 10.0 WSW 5 6 1021.4 - 0.2 - - - - - - -
03/07:00am 9.2 WSW 5 6 1021.1 - 0.2 - - - - - - -
03/06:30am 9.7 WSW 6 8 1020.5 - 0.2 - - - - - - -
03/06:00am 10.7 WSW 6 7 1020.2 - 0.2 - - - - - - -

Other Formats:

Comma delimited format used in spreadsheet applications
http://www.bom.gov.au/fwo/IDQ60701/IDQ60701.94373.axf

JavaScript Object Notation format (JSON) in row-major order
http://www.bom.gov.au/fwo/IDQ60701/IDQ60701.94373.json